Time;durP1;ratioP1;P1;durP2;ratioP2;P2;SDS_P1;SDS_P2;PMS_P1;PMS_P2;Temp;Humidity;BMP_temperature;BMP_pressure;BME280_temperature;BME280_humidity;BME280_pressure;Samples;Min_cycle;Max_cycle;Signal;HPM_P1;HPM_P2
2021/10/21 18:14:14;;;;;;;21.90;11.65;;;;;;;12.06;64.35;97810.22;5161989;27;20602;-83
2021/10/21 18:17:00;;;;;;;29.90;12.90;;;;;;;12.16;64.52;97807.34;5117369;27;20038;-77
2021/10/21 18:19:28;;;;;;;27.30;13.32;;;;;;;12.25;64.11;97800.97;5107191;27;20087;-83
2021/10/21 18:21:54;;;;;;;29.55;12.60;;;;;;;12.32;63.80;97795.81;5137641;27;20042;-79
2021/10/21 18:24:26;;;;;;;29.90;13.02;;;;;;;12.39;63.16;97792.28;5103415;28;20118;-84
2021/10/21 18:26:54;;;;;;;25.42;12.43;;;;;;;12.44;63.20;97784.63;5058637;28;20058;-80
2021/10/21 18:29:21;;;;;;;28.33;12.80;;;;;;;12.49;62.49;97783.28;5060875;28;20077;-81
2021/10/21 18:31:51;;;;;;;110.68;44.40;;;;;;;12.55;62.71;97774.63;5065760;28;20091;-78
2021/10/21 18:34:16;;;;;;;37.92;17.38;;;;;;;12.61;61.86;97763.25;5060612;28;20522;-81
2021/10/21 18:36:43;;;;;;;23.85;11.27;;;;;;;12.71;61.60;97774.47;5059057;28;20057;-79
2021/10/21 18:39:11;;;;;;;33.40;14.75;;;;;;;12.75;61.18;97769.63;5044165;28;20037;-79
2021/10/21 18:41:39;;;;;;;27.15;13.20;;;;;;;12.78;61.10;97770.09;5058831;28;20060;-85
2021/10/21 18:44:09;;;;;;;44.20;18.35;;;;;;;12.74;61.16;97776.75;5029703;28;20045;-82
2021/10/21 18:46:35;;;;;;;44.65;19.80;;;;;;;12.61;60.88;97765.91;5056972;28;20067;-78
2021/10/21 18:49:02;;;;;;;32.13;14.52;;;;;;;12.49;61.38;97759.41;5045528;28;20110;-82
2021/10/21 18:51:33;;;;;;;26.77;11.70;;;;;;;12.42;61.41;97775.19;5062387;28;20048;-80
2021/10/21 18:54:01;;;;;;;23.05;13.18;;;;;;;12.34;61.60;97765.47;5061706;28;20098;-80
2021/10/21 18:56:28;;;;;;;24.90;13.57;;;;;;;12.30;61.17;97757.06;5031790;28;20044;-83
2021/10/21 18:58:57;;;;;;;34.83;13.90;;;;;;;12.28;61.49;97758.25;5118156;28;20051;-81
2021/10/21 19:01:24;;;;;;;46.50;21.25;;;;;;;12.21;61.69;97752.00;5093962;27;20039;-79
2021/10/21 19:03:50;;;;;;;31.85;14.93;;;;;;;12.25;61.67;97758.56;5142765;27;20121;-79
2021/10/21 19:06:19;;;;;;;24.15;12.30;;;;;;;12.20;61.39;97739.72;5125837;27;20499;-79
2021/10/21 19:08:47;;;;;;;32.10;15.55;;;;;;;12.15;61.22;97748.22;5106321;27;20035;-77
2021/10/21 19:11:35;;;;;;;30.00;13.18;;;;;;;12.05;61.52;97745.81;5127543;27;20038;-82
2021/10/21 19:14:10;;;;;;;31.70;13.65;;;;;;;12.00;61.56;97734.91;5090597;28;20079;-83
2021/10/21 19:16:37;;;;;;;26.27;12.88;;;;;;;11.97;61.80;97740.56;5121668;28;20035;-83
2021/10/21 19:19:08;;;;;;;35.33;14.50;;;;;;;11.88;62.10;97737.09;5082829;28;20032;-81
2021/10/21 19:21:35;;;;;;;41.88;18.65;;;;;;;11.82;62.39;97733.34;5116857;28;20040;-81
2021/10/21 19:24:02;;;;;;;24.20;12.52;;;;;;;11.79;61.98;97738.97;5106883;28;20076;-80
2021/10/21 19:26:28;;;;;;;28.20;12.25;;;;;;;11.75;62.02;97736.84;5103905;28;20043;-78
2021/10/21 19:28:55;;;;;;;24.23;12.40;;;;;;;11.70;61.92;97723.28;5084688;28;20138;-83
2021/10/21 19:31:23;;;;;;;27.60;13.35;;;;;;;11.66;62.18;97730.75;5070459;28;20126;-79
2021/10/21 19:33:50;;;;;;;30.58;12.45;;;;;;;11.63;62.33;97717.88;5102597;28;20094;-78
2021/10/21 19:36:17;;;;;;;;;;;;;;;11.58;62.49;97720.22;5071618;28;20088;-80
2021/10/21 19:38:45;;;;;;;26.50;13.05;;;;;;;11.50;62.49;97713.13;5069697;28;19915;-81
2021/10/21 19:41:13;;;;;;;27.00;12.93;;;;;;;11.43;63.02;97718.31;5101392;28;20093;-78
2021/10/21 19:43:39;;;;;;;30.20;12.25;;;;;;;11.31;63.18;97714.38;5116112;28;20032;-78
2021/10/21 19:46:05;;;;;;;29.38;12.77;;;;;;;11.22;63.55;97710.13;5114695;27;20074;-77
2021/10/21 19:48:31;;;;;;;30.92;13.82;;;;;;;11.16;64.13;97701.88;5084560;28;20071;-80
2021/10/21 19:50:59;;;;;;;24.05;12.60;;;;;;;11.11;64.05;97698.91;5088130;28;20039;-81
2021/10/21 19:53:25;;;;;;;23.42;12.60;;;;;;;11.07;64.41;97696.78;5098732;28;20055;-77
2021/10/21 19:55:57;;;;;;;26.92;13.77;;;;;;;11.04;64.16;97703.25;5111560;28;20047;-80
2021/10/21 19:58:26;;;;;;;29.27;12.95;;;;;;;10.96;64.37;97695.31;5080145;28;20553;-77
2021/10/21 20:00:51;;;;;;;;;;;;;;;10.95;64.78;97688.38;5107958;28;20074;-79
2021/10/21 20:03:18;;;;;;;28.48;12.55;;;;;;;10.90;64.75;97674.84;5077982;28;19942;-81
2021/10/21 20:05:44;;;;;;;26.17;12.43;;;;;;;10.82;65.13;97668.59;5080259;28;20040;-80
2021/10/21 20:08:10;;;;;;;26.27;12.63;;;;;;;10.78;65.12;97677.84;5071400;28;20040;-79
2021/10/21 20:10:37;;;;;;;49.22;19.40;;;;;;;10.72;65.37;97675.06;5081721;28;20043;-80
2021/10/21 20:13:06;;;;;;;29.15;13.30;;;;;;;10.66;65.46;97663.34;5097379;28;20499;-82
2021/10/21 20:15:34;;;;;;;25.90;12.90;;;;;;;10.63;65.60;97663.66;5117746;28;20103;-78
2021/10/21 20:18:03;;;;;;;26.23;12.73;;;;;;;10.61;66.01;97649.81;5114502;28;20118;-80
2021/10/21 20:20:29;;;;;;;24.45;12.95;;;;;;;10.59;66.01;97642.06;5105058;28;20040;-79
2021/10/21 20:22:55;;;;;;;25.90;12.27;;;;;;;10.56;66.09;97646.84;5107987;28;20042;-81
2021/10/21 20:25:28;;;;;;;25.50;13.43;;;;;;;10.51;65.97;97629.66;5062601;28;20511;-81
2021/10/21 20:27:55;;;;;;;24.27;12.57;;;;;;;10.49;66.05;97621.09;5096402;28;20164;-81
2021/10/21 20:30:22;;;;;;;25.20;12.43;;;;;;;10.45;66.16;97613.66;5062212;28;20094;-80
2021/10/21 20:32:50;;;;;;;27.98;13.35;;;;;;;10.41;66.14;97610.53;5063625;28;20051;-80
2021/10/21 20:35:17;;;;;;;26.40;12.40;;;;;;;10.39;66.52;97599.28;5107489;28;20032;-80
2021/10/21 20:37:43;;;;;;;26.98;12.43;;;;;;;10.33;66.56;97579.66;5100723;27;20399;-80
2021/10/21 20:40:12;;;;;;;28.13;12.75;;;;;;;10.30;66.57;97595.81;5125775;27;20047;-78
2021/10/21 20:42:40;;;;;;;27.95;12.32;;;;;;;10.27;66.89;97582.97;5096061;28;20091;-78
2021/10/21 20:45:07;;;;;;;27.70;12.57;;;;;;;10.26;67.05;97580.50;5096938;28;20047;-78
2021/10/21 20:47:34;;;;;;;27.75;12.90;;;;;;;10.30;66.99;97568.59;5114245;28;20499;-79
2021/10/21 20:50:04;;;;;;;26.42;12.48;;;;;;;10.29;66.90;97566.94;5113494;28;20123;-78
2021/10/21 20:52:31;;;;;;;24.13;12.38;;;;;;;10.32;66.83;97558.69;5112562;28;20067;-80
2021/10/21 20:54:58;;;;;;;25.27;12.07;;;;;;;10.36;66.74;97554.72;5113143;28;20039;-79
2021/10/21 20:57:24;;;;;;;26.15;12.05;;;;;;;10.40;66.51;97557.84;5112821;28;20377;-77
2021/10/21 20:59:50;;;;;;;24.20;12.68;;;;;;;10.39;66.81;97554.38;5113424;28;20130;-79
2021/10/21 21:02:17;;;;;;;26.33;11.93;;;;;;;10.43;66.09;97547.78;5113010;28;20506;-77
2021/10/21 21:04:42;;;;;;;22.70;11.60;;;;;;;10.46;66.32;97558.00;5126058;27;20537;-77
2021/10/21 21:07:09;;;;;;;22.40;12.15;;;;;;;10.50;66.33;97559.31;5104616;28;20375;-78
2021/10/21 21:09:35;;;;;;;25.85;11.82;;;;;;;10.56;65.95;97557.78;5112000;28;20043;-77
2021/10/21 21:12:03;;;;;;;30.42;12.73;;;;;;;10.58;65.93;97550.53;5112148;28;20042;-80
2021/10/21 21:14:28;;;;;;;23.45;11.82;;;;;;;10.61;65.83;97557.28;5094156;28;20039;-77
2021/10/21 21:16:54;;;;;;;26.33;11.98;;;;;;;10.64;65.34;97554.28;5095110;28;20047;-78
2021/10/21 21:19:20;;;;;;;26.80;11.85;;;;;;;10.63;65.15;97542.06;5114471;28;20039;-78
2021/10/21 21:21:46;;;;;;;25.05;12.35;;;;;;;10.65;65.35;97550.66;5113147;28;20040;-74
2021/10/21 21:24:12;;;;;;;22.83;12.30;;;;;;;10.65;65.33;97559.44;5112789;28;20502;-80
2021/10/21 21:26:38;;;;;;;23.45;11.20;;;;;;;10.66;65.44;97557.59;5113530;28;20086;-78
2021/10/21 21:29:04;;;;;;;20.63;11.82;;;;;;;10.70;65.34;97563.38;5124143;27;20444;-80
2021/10/21 21:31:33;;;;;;;;;;;;;;;10.72;65.04;97572.78;5077221;28;20032;-80
2021/10/21 21:33:59;;;;;;;21.63;11.30;;;;;;;10.73;65.16;97569.16;5095368;28;19916;-84
2021/10/21 21:36:25;;;;;;;23.05;11.25;;;;;;;10.74;65.10;97562.88;5075285;28;20038;-80
2021/10/21 21:38:51;;;;;;;24.75;11.73;;;;;;;10.70;65.46;97561.53;5100137;28;20050;-79
2021/10/21 21:41:17;;;;;;;25.55;11.70;;;;;;;10.72;65.28;97551.63;5109069;28;20107;-78
2021/10/21 21:43:43;;;;;;;27.60;12.13;;;;;;;10.75;65.10;97550.47;5113346;27;20116;-77
2021/10/21 21:46:09;;;;;;;33.97;14.93;;;;;;;10.76;65.10;97552.91;5095076;28;20165;-78
2021/10/21 21:48:35;;;;;;;23.73;11.98;;;;;;;10.79;65.32;97549.94;5112570;28;20554;-78
2021/10/21 21:51:04;;;;;;;23.55;11.20;;;;;;;10.78;64.95;97545.66;5118234;27;20343;-78
2021/10/21 21:53:30;;;;;;;28.42;12.82;;;;;;;10.79;65.16;97534.09;5128819;27;20050;-80
2021/10/21 21:55:56;;;;;;;20.40;11.10;;;;;;;10.78;65.04;97529.78;5113650;28;20047;-77
2021/10/21 21:58:22;;;;;;;22.15;11.10;;;;;;;10.78;65.56;97519.22;5120679;27;20043;-81
2021/10/21 22:00:48;;;;;;;21.85;11.35;;;;;;;10.77;65.27;97530.78;5078765;28;20044;-79
2021/10/21 22:03:14;;;;;;;22.85;12.32;;;;;;;10.77;65.16;97527.31;5124279;27;20044;-76
2021/10/21 22:05:40;;;;;;;26.10;11.07;;;;;;;10.81;65.31;97518.84;5117279;27;20042;-77
2021/10/21 22:08:05;;;;;;;19.50;11.27;;;;;;;10.83;65.14;97516.88;5116746;27;20031;-79
2021/10/21 22:10:32;;;;;;;21.88;11.10;;;;;;;10.87;64.94;97516.53;5128997;28;20043;-78
2021/10/21 22:12:58;;;;;;;20.90;11.15;;;;;;;10.91;64.78;97501.97;5115742;28;20138;-81
2021/10/21 22:15:24;;;;;;;20.90;10.60;;;;;;;10.94;64.51;97509.53;5126300;27;20123;-79
2021/10/21 22:17:50;;;;;;;23.70;10.85;;;;;;;10.95;64.21;97503.25;5124963;27;20088;-77
2021/10/21 22:20:20;;;;;;;22.58;10.77;;;;;;;10.95;64.25;97498.78;5118544;28;20046;-80
2021/10/21 22:22:47;;;;;;;25.75;11.13;;;;;;;10.95;64.17;97492.66;5103870;28;20040;-81
2021/10/21 22:25:12;;;;;;;22.52;10.52;;;;;;;10.94;64.22;97499.78;5112406;28;20412;-77
2021/10/21 22:27:38;;;;;;;20.45;10.95;;;;;;;10.97;64.06;97491.50;5077014;28;20123;-78
2021/10/21 22:30:05;;;;;;;20.80;10.40;;;;;;;10.94;64.30;97483.06;5119181;27;20104;-82
2021/10/21 22:32:31;;;;;;;22.80;11.20;;;;;;;10.95;64.34;97482.09;5070939;28;20047;-78
2021/10/21 22:34:58;;;;;;;21.38;10.55;;;;;;;10.93;64.40;97474.34;5040989;28;20317;-78
2021/10/21 22:37:23;;;;;;;18.15;9.55;;;;;;;10.99;63.91;97475.44;5127241;28;20027;-79
2021/10/21 22:39:49;;;;;;;33.20;10.13;;;;;;;11.02;63.94;97480.38;5113997;28;20049;-77
2021/10/21 22:42:15;;;;;;;22.23;11.52;;;;;;;11.09;63.69;97483.16;5114436;28;20039;-77
2021/10/21 22:44:41;;;;;;;28.92;12.70;;;;;;;11.12;63.39;97469.59;5124048;28;20070;-77
2021/10/21 22:47:08;;;;;;;22.05;11.30;;;;;;;11.20;63.08;97463.41;5114803;28;20066;-80
2021/10/21 22:49:35;;;;;;;21.02;10.77;;;;;;;11.21;63.09;97460.56;5097784;28;20049;-77
2021/10/21 22:52:01;;;;;;;23.55;10.90;;;;;;;11.27;63.07;97454.56;5120645;27;20054;-77
2021/10/21 22:54:27;;;;;;;23.05;10.30;;;;;;;11.31;62.73;97450.59;5094008;28;20484;-76
2021/10/21 22:56:54;;;;;;;21.48;10.60;;;;;;;11.31;62.58;97455.88;5111995;28;20039;-79
2021/10/21 22:59:25;;;;;;;23.13;11.00;;;;;;;11.34;62.68;97454.69;5096451;28;20047;-76
2021/10/21 23:01:53;;;;;;;23.55;10.73;;;;;;;11.35;62.78;97460.78;5082778;28;20539;-80
2021/10/21 23:04:21;;;;;;;23.80;10.80;;;;;;;11.36;62.32;97442.09;5111359;27;20078;-75
2021/10/21 23:06:47;;;;;;;22.40;10.50;;;;;;;11.39;62.19;97454.97;5087285;27;20126;-76
2021/10/21 23:09:13;;;;;;;19.20;10.32;;;;;;;11.41;62.49;97452.97;5103335;27;20138;-79
2021/10/21 23:11:39;;;;;;;20.23;10.63;;;;;;;11.48;62.06;97466.31;5138276;27;20061;-78
2021/10/21 23:14:08;;;;;;;27.52;10.48;;;;;;;11.54;62.27;97464.75;5083517;28;20138;-77
2021/10/21 23:16:34;;;;;;;26.67;10.70;;;;;;;11.61;61.82;97471.00;5115345;28;20044;-77
2021/10/21 23:19:01;;;;;;;23.60;11.15;;;;;;;11.71;61.68;97465.44;5122189;27;20048;-76
2021/10/21 23:21:27;;;;;;;20.38;11.02;;;;;;;11.82;60.72;97444.66;5073590;27;20071;-80
2021/10/21 23:23:53;;;;;;;26.73;12.00;;;;;;;11.92;60.89;97446.19;5116348;27;20040;-79
2021/10/21 23:26:19;;;;;;;23.98;12.07;;;;;;;11.98;60.32;97443.66;5087251;28;20042;-76
2021/10/21 23:28:45;;;;;;;25.38;11.60;;;;;;;12.06;60.05;97442.75;5055357;28;20059;-79
2021/10/21 23:31:11;;;;;;;23.70;11.25;;;;;;;12.15;59.71;97448.78;5077297;28;20418;-73
2021/10/21 23:33:37;;;;;;;24.40;12.05;;;;;;;12.17;59.85;97451.25;5097679;27;20092;-75
2021/10/21 23:36:03;;;;;;;33.75;12.07;;;;;;;12.21;59.36;97444.56;5095810;27;20039;-75
2021/10/21 23:38:29;;;;;;;23.02;11.93;;;;;;;12.23;59.38;97410.75;5115687;27;20043;-73
2021/10/21 23:40:55;;;;;;;23.50;11.65;;;;;;;12.26;59.16;97431.56;5114842;27;20051;-73
2021/10/21 23:43:21;;;;;;;21.63;10.88;;;;;;;12.26;59.05;97440.38;5118174;27;20187;-77
2021/10/21 23:45:47;;;;;;;24.50;11.43;;;;;;;12.26;58.85;97427.13;5121109;27;20032;-75
2021/10/21 23:48:13;;;;;;;24.83;11.00;;;;;;;12.32;58.73;97449.38;5079669;28;20464;-77
2021/10/21 23:50:40;;;;;;;23.33;11.35;;;;;;;12.34;58.60;97434.13;5102876;27;20038;-74
2021/10/21 23:53:06;;;;;;;20.02;10.77;;;;;;;12.29;59.04;97423.28;5114311;27;20055;-78
2021/10/21 23:55:32;;;;;;;23.90;11.48;;;;;;;12.28;58.91;97421.63;5121271;27;20402;-81
2021/10/21 23:57:58;;;;;;;24.10;11.27;;;;;;;12.27;58.84;97433.22;5121848;27;20035;-77
